createdAt,value
2023-03-11T00:00:46.741Z,97318.66
2023-03-11T00:01:27.467Z,97325.34
2023-03-11T00:02:07.319Z,97314.50
2023-03-11T00:02:47.376Z,97335.50
2023-03-11T00:03:31.280Z,97334.50
2023-03-11T00:04:11.806Z,97312.84
2023-03-11T00:04:52.374Z,97335.47
2023-03-11T00:05:42.552Z,97327.81
2023-03-11T00:06:23.311Z,97331.78
2023-03-11T00:07:03.374Z,97329.72
2023-03-11T00:07:46.297Z,97304.97
2023-03-11T00:08:29.395Z,97329.09
2023-03-11T00:09:11.297Z,97329.72
2023-03-11T00:09:51.377Z,97314.09
2023-03-11T00:10:38.304Z,97323.88
2023-03-11T00:11:19.796Z,97316.44
2023-03-11T00:11:59.309Z,97327.03
2023-03-11T00:12:39.355Z,97319.53
2023-03-11T00:13:22.273Z,97305.38
2023-03-11T00:14:02.402Z,97332.38
2023-03-11T00:14:43.276Z,97314.50
2023-03-11T00:15:23.404Z,97326.56
2023-03-11T00:16:04.273Z,97320.34
2023-03-11T00:16:44.408Z,97308.72
2023-03-11T00:17:25.309Z,97284.81
2023-03-11T00:18:05.424Z,97323.72
2023-03-11T00:18:45.251Z,97329.94
2023-03-11T00:19:25.384Z,97295.66
2023-03-11T00:20:06.252Z,97302.59
2023-03-11T00:20:50.370Z,97311.56
2023-03-11T00:21:30.320Z,97319.41
2023-03-11T00:22:10.375Z,97319.88
2023-03-11T00:22:51.337Z,97312.25
2023-03-11T00:23:35.545Z,97307.28
2023-03-11T00:24:16.266Z,97297.28
2023-03-11T00:24:56.394Z,97315.78
2023-03-11T00:25:39.268Z,97312.44
2023-03-11T00:26:19.399Z,97311.41
2023-03-11T00:27:00.275Z,97318.88
2023-03-11T00:27:40.375Z,97325.28
2023-03-11T00:28:22.294Z,97325.72
2023-03-11T00:29:02.371Z,97308.28
2023-03-11T00:29:43.284Z,97302.09
2023-03-11T00:30:24.374Z,97317.88
2023-03-11T00:31:05.289Z,97319.88
2023-03-11T00:31:45.335Z,97315.69
2023-03-11T00:32:25.292Z,97314.25
2023-03-11T00:33:06.349Z,97301.22
2023-03-11T00:33:47.333Z,97308.09
2023-03-11T00:34:27.360Z,97321.19
2023-03-11T00:35:08.257Z,97304.81
2023-03-11T00:35:50.428Z,97329.75
2023-03-11T00:36:40.269Z,97314.19
2023-03-11T00:37:20.372Z,97317.94
2023-03-11T00:38:06.306Z,97317.50
2023-03-11T00:38:54.342Z,97305.03
2023-03-11T00:39:48.250Z,97309.38
2023-03-11T00:40:45.274Z,97293.81
2023-03-11T00:41:39.292Z,97317.69
2023-03-11T00:42:33.251Z,97317.88
2023-03-11T00:43:28.304Z,97312.09
2023-03-11T00:44:15.267Z,97319.78
2023-03-11T00:44:49.384Z,97297.31
2023-03-11T00:45:37.255Z,97313.97
2023-03-11T00:46:11.401Z,97307.31
2023-03-11T00:46:58.261Z,97308.78
2023-03-11T00:47:32.337Z,97303.75
2023-03-11T00:48:21.250Z,97301.25
2023-03-11T00:48:58.429Z,97321.19
2023-03-11T00:49:39.276Z,97304.34
2023-03-11T00:50:29.366Z,97311.66
2023-03-11T00:51:10.264Z,97318.31
2023-03-11T00:51:51.338Z,97298.38
2023-03-11T00:52:31.240Z,97302.13
2023-03-11T00:53:12.476Z,97320.38
2023-03-11T00:53:53.261Z,97310.38
2023-03-11T00:54:33.341Z,97315.19
2023-03-11T00:55:14.264Z,97292.09
2023-03-11T00:55:54.333Z,97305.81
2023-03-11T00:56:35.233Z,97308.69
2023-03-11T00:57:15.353Z,97316.19
2023-03-11T00:58:00.269Z,97299.56
2023-03-11T00:58:40.638Z,97305.78
2023-03-11T00:59:21.219Z,97292.50
2023-03-11T01:00:02.373Z,97298.31
2023-03-11T01:00:43.250Z,97306.22
2023-03-11T01:01:26.411Z,97306.44
2023-03-11T01:02:06.243Z,97284.66
2023-03-11T01:02:46.342Z,97297.69
2023-03-11T01:03:27.227Z,97292.16
2023-03-11T01:04:07.332Z,97284.66
2023-03-11T01:04:48.285Z,97281.53
2023-03-11T01:05:32.427Z,97296.31
2023-03-11T01:06:13.261Z,97279.25
2023-03-11T01:06:53.329Z,97285.47
2023-03-11T01:07:34.233Z,97262.94
2023-03-11T01:08:14.352Z,97281.94
2023-03-11T01:08:54.220Z,97298.97
2023-03-11T01:09:34.304Z,97288.81
2023-03-11T01:10:17.255Z,97295.00
2023-03-11T01:10:57.325Z,97296.72
2023-03-11T01:11:39.244Z,97280.69
2023-03-11T01:12:19.367Z,97295.00
2023-03-11T01:13:00.275Z,97285.69
2023-03-11T01:13:41.328Z,97273.84
2023-03-11T01:14:22.221Z,97286.75
2023-03-11T01:15:02.332Z,97274.25
2023-03-11T01:15:44.277Z,97285.69
2023-03-11T01:16:24.425Z,97281.34
2023-03-11T01:17:05.239Z,97282.19
2023-03-11T01:17:45.572Z,97285.91
2023-03-11T01:18:27.225Z,97274.88
2023-03-11T01:19:07.524Z,97296.72
2023-03-11T01:19:48.214Z,97290.69
2023-03-11T01:20:28.335Z,97275.47
2023-03-11T01:21:09.254Z,97288.97
2023-03-11T01:21:49.314Z,97289.19
2023-03-11T01:22:30.236Z,97290.03
2023-03-11T01:23:11.289Z,97263.78
2023-03-11T01:23:52.195Z,97279.63
2023-03-11T01:24:32.334Z,97271.94
2023-03-11T01:25:13.208Z,97283.97
2023-03-11T01:25:53.333Z,97287.94
2023-03-11T01:26:35.252Z,97282.88
2023-03-11T01:27:15.349Z,97287.72
2023-03-11T01:27:56.225Z,97282.47
2023-03-11T01:28:36.364Z,97289.19
2023-03-11T01:29:16.192Z,97287.84
2023-03-11T01:29:56.376Z,97293.25
2023-03-11T01:30:37.225Z,97292.84
2023-03-11T01:31:18.358Z,97282.84
2023-03-11T01:31:59.181Z,97275.78
2023-03-11T01:32:39.436Z,97270.38
2023-03-11T01:33:26.249Z,97270.41
2023-03-11T01:34:06.319Z,97280.19
2023-03-11T01:34:47.214Z,97279.47
2023-03-11T01:35:30.349Z,97277.47
2023-03-11T01:36:12.234Z,97265.75
2023-03-11T01:36:52.300Z,97276.13
2023-03-11T01:37:33.175Z,97273.25
2023-03-11T01:38:13.313Z,97295.66
2023-03-11T01:38:53.259Z,97285.75
2023-03-11T01:39:33.321Z,97293.38
2023-03-11T01:40:20.206Z,97292.84
2023-03-11T01:41:00.351Z,97293.34
2023-03-11T01:41:41.200Z,97292.53
2023-03-11T01:42:21.296Z,97284.81
2023-03-11T01:43:02.184Z,97277.41
2023-03-11T01:44:08.207Z,97274.06
2023-03-11T01:45:02.232Z,97289.91
2023-03-11T01:46:05.231Z,97288.00
2023-03-11T01:47:08.209Z,97289.06
2023-03-11T01:48:02.228Z,97289.91
2023-03-11T01:49:08.227Z,97282.03
2023-03-11T01:50:03.208Z,97286.16
2023-03-11T01:51:02.188Z,97267.84
2023-03-11T01:52:00.188Z,97286.34
2023-03-11T01:52:55.224Z,97283.69
2023-03-11T01:53:49.195Z,97281.16
2023-03-11T01:54:38.227Z,97290.72
2023-03-11T01:55:20.287Z,97270.31
2023-03-11T01:56:01.172Z,97275.28
2023-03-11T01:56:42.287Z,97271.31
2023-03-11T01:57:23.145Z,97264.34
2023-03-11T01:58:04.293Z,97272.88
2023-03-11T01:58:46.187Z,97273.25
2023-03-11T01:59:31.308Z,97280.28
2023-03-11T02:00:17.190Z,97279.06
2023-03-11T02:00:57.265Z,97282.38
2023-03-11T02:01:38.218Z,97262.53
2023-03-11T02:02:39.286Z,97294.88
2023-03-11T02:03:31.170Z,97279.53
2023-03-11T02:04:11.245Z,97282.38
2023-03-11T02:04:52.195Z,97252.44
2023-03-11T02:05:33.200Z,97271.38
2023-03-11T02:06:10.348Z,97264.06
2023-03-11T02:06:58.194Z,97272.44
2023-03-11T02:07:32.259Z,97273.66
2023-03-11T02:08:19.151Z,97273.16
2023-03-11T02:08:53.236Z,97280.50
2023-03-11T02:09:40.145Z,97273.22
2023-03-11T02:10:16.285Z,97266.13
2023-03-11T02:10:59.190Z,97294.06
2023-03-11T02:11:39.285Z,97286.44
2023-03-11T02:12:22.166Z,97290.56
2023-03-11T02:13:03.750Z,97262.22
2023-03-11T02:13:46.169Z,97283.94
2023-03-11T02:14:26.330Z,97275.19
2023-03-11T02:15:07.185Z,97261.09
2023-03-11T02:15:47.299Z,97280.97
2023-03-11T02:16:27.232Z,97272.28
2023-03-11T02:17:08.256Z,97275.00
2023-03-11T02:17:49.194Z,97282.66
2023-03-11T02:18:29.328Z,97291.09
2023-03-11T02:19:41.228Z,97267.22
2023-03-11T02:21:04.252Z,97281.47
2023-03-11T02:21:44.179Z,97276.47
2023-03-11T02:22:24.279Z,97271.13
2023-03-11T02:23:05.136Z,97278.38
2023-03-11T02:24:21.296Z,97283.34
2023-03-11T02:25:47.160Z,97286.06
2023-03-11T02:26:38.265Z,97280.06
2023-03-11T02:27:21.180Z,97291.75
2023-03-11T02:28:02.265Z,97265.09
2023-03-11T02:28:43.223Z,97294.00
2023-03-11T02:29:25.265Z,97279.66
2023-03-11T02:30:06.137Z,97299.28
2023-03-11T02:30:50.514Z,97294.69
2023-03-11T02:31:31.234Z,97311.41
2023-03-11T02:32:16.268Z,97281.44
2023-03-11T02:32:57.192Z,97287.84
2023-03-11T02:33:39.499Z,97291.78
2023-03-11T02:34:28.139Z,97318.94
2023-03-11T02:35:08.240Z,97308.13
2023-03-11T02:35:48.187Z,97316.84
2023-03-11T02:36:47.299Z,97306.22
2023-03-11T02:37:28.146Z,97302.09
2023-03-11T02:38:15.189Z,97281.22
2023-03-11T02:39:09.136Z,97312.84
2023-03-11T02:40:07.170Z,97302.81
2023-03-11T02:41:22.120Z,97295.00
2023-03-11T02:42:29.161Z,97314.59
2023-03-11T02:43:27.218Z,97296.19
2023-03-11T02:44:25.136Z,97307.78
2023-03-11T02:45:27.136Z,97298.25
2023-03-11T02:46:22.128Z,97304.78
2023-03-11T02:47:17.124Z,97305.03
2023-03-11T02:48:12.139Z,97301.50
2023-03-11T02:48:53.138Z,97304.66
2023-03-11T02:49:33.233Z,97308.03
2023-03-11T02:50:18.157Z,97307.97
2023-03-11T02:50:59.238Z,97314.38
2023-03-11T02:51:40.133Z,97313.63
2023-03-11T02:52:20.211Z,97302.63
2023-03-11T02:53:00.118Z,97307.34
2023-03-11T02:53:46.223Z,97324.94
2023-03-11T02:54:27.163Z,97345.44
2023-03-11T02:55:07.224Z,97313.53
2023-03-11T02:55:47.107Z,97308.91
2023-03-11T02:56:27.253Z,97293.16
2023-03-11T02:57:08.129Z,97313.81
2023-03-11T02:57:49.235Z,97308.16
2023-03-11T02:58:30.120Z,97315.69
2023-03-11T02:59:10.243Z,97320.97
2023-03-11T02:59:51.150Z,97298.81
2023-03-11T03:00:32.187Z,97339.78
2023-03-11T03:01:13.186Z,97331.16
2023-03-11T03:01:53.215Z,97339.22
2023-03-11T03:02:35.106Z,97321.34
2023-03-11T03:03:15.837Z,97320.25
2023-03-11T03:03:57.195Z,97328.50
2023-03-11T03:04:37.285Z,97316.09
2023-03-11T03:05:18.139Z,97341.75
2023-03-11T03:05:58.268Z,97324.72
2023-03-11T03:06:39.116Z,97330.91
2023-03-11T03:07:19.211Z,97327.94
2023-03-11T03:08:00.109Z,97329.22
2023-03-11T03:08:40.185Z,97347.38
2023-03-11T03:09:20.085Z,97341.91
2023-03-11T03:10:00.231Z,97323.59
2023-03-11T03:10:41.139Z,97333.03
2023-03-11T03:11:21.224Z,97325.41
2023-03-11T03:12:01.123Z,97335.72
2023-03-11T03:12:41.196Z,97334.88
2023-03-11T03:13:22.109Z,97327.91
2023-03-11T03:14:02.237Z,97337.38
2023-03-11T03:14:44.098Z,97329.28
2023-03-11T03:15:24.190Z,97328.00
2023-03-11T03:16:05.192Z,97335.59
2023-03-11T03:16:45.303Z,97325.75
2023-03-11T03:17:26.144Z,97328.72
2023-03-11T03:18:06.207Z,97338.00
2023-03-11T03:18:47.096Z,97357.25
2023-03-11T03:19:27.212Z,97316.69
2023-03-11T03:20:08.106Z,97336.78
2023-03-11T03:20:48.205Z,97335.03
2023-03-11T03:21:28.136Z,97347.91
2023-03-11T03:22:08.167Z,97345.03
2023-03-11T03:22:49.107Z,97337.91
2023-03-11T03:23:29.183Z,97343.72
2023-03-11T03:24:10.102Z,97336.19
2023-03-11T03:24:50.164Z,97337.91
2023-03-11T03:25:31.100Z,97334.81
2023-03-11T03:26:13.693Z,97338.44
2023-03-11T03:26:55.104Z,97342.59
2023-03-11T03:27:35.211Z,97333.56
2023-03-11T03:28:16.084Z,97343.09
2023-03-11T03:28:56.164Z,97342.78
2023-03-11T03:29:37.094Z,97328.72
2023-03-11T03:30:18.193Z,97349.81
2023-03-11T03:30:59.088Z,97344.31
2023-03-11T03:31:39.318Z,97345.97
2023-03-11T03:32:19.156Z,97322.69
2023-03-11T03:32:59.675Z,97338.38
2023-03-11T03:33:41.067Z,97346.09
2023-03-11T03:34:21.163Z,97344.88
2023-03-11T03:35:05.077Z,97338.00
2023-03-11T03:35:50.239Z,97333.47
2023-03-11T03:36:31.079Z,97349.59
2023-03-11T03:37:11.183Z,97335.22
2023-03-11T03:37:51.094Z,97346.00
2023-03-11T03:38:31.160Z,97331.53
2023-03-11T03:39:13.072Z,97330.59
2023-03-11T03:39:53.165Z,97351.00
2023-03-11T03:40:34.073Z,97358.56
2023-03-11T03:41:18.102Z,97358.47
2023-03-11T03:41:58.052Z,97356.38
2023-03-11T03:42:38.244Z,97352.63
2023-03-11T03:43:19.093Z,97362.81
2023-03-11T03:43:59.158Z,97369.00
2023-03-11T03:44:40.060Z,97359.00
2023-03-11T03:45:20.158Z,97362.09
2023-03-11T03:46:05.172Z,97342.44
2023-03-11T03:46:45.150Z,97339.19
2023-03-11T03:47:27.046Z,97365.06
2023-03-11T03:48:21.137Z,97355.53
2023-03-11T03:49:15.076Z,97348.06
2023-03-11T03:50:09.076Z,97340.66
2023-03-11T03:51:03.062Z,97350.81
2023-03-11T03:51:57.055Z,97356.13
2023-03-11T03:52:53.046Z,97357.53
2023-03-11T03:53:42.096Z,97377.38
2023-03-11T03:54:16.145Z,97348.38
2023-03-11T03:55:03.045Z,97358.59
2023-03-11T03:55:37.157Z,97361.00
2023-03-11T03:56:25.073Z,97364.44
2023-03-11T03:56:59.176Z,97359.81
2023-03-11T03:57:46.086Z,97359.78
2023-03-11T03:58:20.169Z,97363.97
2023-03-11T03:59:09.078Z,97351.19
2023-03-11T03:59:43.179Z,97354.53
2023-03-11T04:00:30.066Z,97334.72
2023-03-11T04:01:05.199Z,97344.06
2023-03-11T04:01:52.106Z,97363.44
2023-03-11T04:02:26.267Z,97343.97
2023-03-11T04:03:14.089Z,97359.34
2023-03-11T04:03:48.211Z,97354.34
2023-03-11T04:04:29.078Z,97344.06
2023-03-11T04:05:09.161Z,97373.88
2023-03-11T04:05:49.036Z,97337.63
2023-03-11T04:06:33.137Z,97375.06
2023-03-11T04:07:35.035Z,97349.31
2023-03-11T04:08:29.059Z,97353.84
2023-03-11T04:09:25.060Z,97352.56
2023-03-11T04:10:05.079Z,97358.22
2023-03-11T04:10:45.186Z,97376.72
2023-03-11T04:11:26.039Z,97366.00
2023-03-11T04:12:06.186Z,97363.50
2023-03-11T04:12:46.037Z,97370.88
2023-03-11T04:13:26.179Z,97366.13
2023-03-11T04:14:07.023Z,97375.47
2023-03-11T04:14:48.718Z,97371.78
2023-03-11T04:15:29.094Z,97370.47
2023-03-11T04:16:13.163Z,97373.94
2023-03-11T04:16:53.094Z,97358.91
2023-03-11T04:17:33.146Z,97376.66
2023-03-11T04:18:13.027Z,97366.75
2023-03-11T04:18:54.173Z,97363.94
2023-03-11T04:19:35.040Z,97372.63
2023-03-11T04:20:16.130Z,97375.72
2023-03-11T04:20:57.051Z,97361.66
2023-03-11T04:21:39.151Z,97357.88
2023-03-11T04:22:19.037Z,97364.19
2023-03-11T04:22:59.187Z,97381.81
2023-03-11T04:23:41.038Z,97374.91
2023-03-11T04:24:21.158Z,97362.75
2023-03-11T04:25:01.054Z,97386.69
2023-03-11T04:25:41.121Z,97369.00
2023-03-11T04:26:22.052Z,97387.91
2023-03-11T04:27:02.144Z,97371.69
2023-03-11T04:27:45.008Z,97380.38
2023-03-11T04:28:25.153Z,97384.09
2023-03-11T04:29:06.030Z,97379.50
2023-03-11T04:29:46.135Z,97374.56
2023-03-11T04:30:26.024Z,97374.72
2023-03-11T04:31:06.262Z,97391.47
2023-03-11T04:31:47.052Z,97428.91
2023-03-11T04:32:27.161Z,97398.53
2023-03-11T04:33:07.998Z,97387.03
2023-03-11T04:33:48.295Z,97398.28
2023-03-11T04:34:29.035Z,97395.06
2023-03-11T04:35:12.175Z,97376.03
2023-03-11T04:35:53.058Z,97403.19
2023-03-11T04:36:33.171Z,97413.19
2023-03-11T04:37:14.060Z,97429.66
2023-03-11T04:37:54.106Z,97410.88
2023-03-11T04:38:34.057Z,97380.44
2023-03-11T04:39:14.124Z,97398.41
2023-03-11T04:39:55.021Z,97409.69
2023-03-11T04:40:35.113Z,97417.22
2023-03-11T04:41:16.029Z,97406.09
2023-03-11T04:41:56.106Z,97418.09
2023-03-11T04:42:36.059Z,97415.47
2023-03-11T04:43:16.185Z,97413.78
2023-03-11T04:43:57.003Z,97396.25
2023-03-11T04:44:37.090Z,97425.13
2023-03-11T04:45:17.990Z,97418.63
2023-03-11T04:45:58.152Z,97438.41
2023-03-11T04:46:39.118Z,97420.00
2023-03-11T04:47:19.194Z,97423.84
2023-03-11T04:48:00.074Z,97433.69
2023-03-11T04:48:40.104Z,97432.88
2023-03-11T04:49:21.004Z,97439.47
2023-03-11T04:50:01.128Z,97432.44
2023-03-11T04:50:41.995Z,97447.97
2023-03-11T04:51:22.129Z,97457.88
2023-03-11T04:52:02.992Z,97437.97
2023-03-11T04:52:43.077Z,97441.47
2023-03-11T04:53:24.051Z,97433.78
2023-03-11T04:54:04.186Z,97470.25
2023-03-11T04:54:43.998Z,97446.31
2023-03-11T04:55:24.093Z,97465.53
2023-03-11T04:56:04.999Z,97468.38
2023-03-11T04:56:45.119Z,97465.88
2023-03-11T04:57:24.988Z,97468.03
2023-03-11T04:58:05.086Z,97461.00
2023-03-11T04:58:45.017Z,97451.81
2023-03-11T04:59:25.122Z,97468.34
2023-03-11T05:00:05.979Z,97459.97
2023-03-11T05:00:46.263Z,97474.88
2023-03-11T05:01:26.062Z,97464.66
2023-03-11T05:02:06.277Z,97460.44
2023-03-11T05:02:46.992Z,97467.09
2023-03-11T05:03:27.162Z,97436.81
2023-03-11T05:04:08.012Z,97449.69
2023-03-11T05:04:48.110Z,97463.59
2023-03-11T05:05:27.992Z,97476.13
2023-03-11T05:06:08.114Z,97454.50
2023-03-11T05:06:47.989Z,97477.44
2023-03-11T05:07:28.085Z,97470.44
2023-03-11T05:08:09.006Z,97465.44
2023-03-11T05:08:49.116Z,97478.97
2023-03-11T05:09:30.029Z,97455.38
2023-03-11T05:10:12.074Z,97485.25
2023-03-11T05:10:51.990Z,97475.41
2023-03-11T05:11:32.058Z,97471.63
2023-03-11T05:12:12.967Z,97492.38
2023-03-11T05:12:53.092Z,97510.75
2023-03-11T05:13:32.985Z,97493.00
2023-03-11T05:14:13.080Z,97462.56
2023-03-11T05:14:53.044Z,97462.94
2023-03-11T05:15:33.130Z,97488.94
2023-03-11T05:16:14.026Z,97485.97
2023-03-11T05:16:54.134Z,97480.94
2023-03-11T05:17:33.980Z,97471.25
2023-03-11T05:18:14.079Z,97483.13
2023-03-11T05:18:54.960Z,97495.22
2023-03-11T05:19:35.496Z,97507.34
2023-03-11T05:20:18.028Z,97485.91
2023-03-11T05:20:58.083Z,97500.34
2023-03-11T05:21:37.968Z,97501.75
2023-03-11T05:22:18.080Z,97495.16
2023-03-11T05:22:58.974Z,97486.19
2023-03-11T05:23:39.057Z,97496.50
2023-03-11T05:24:19.955Z,97491.06
2023-03-11T05:25:00.084Z,97497.81
2023-03-11T05:25:41.988Z,97477.03
2023-03-11T05:26:22.079Z,97466.91
2023-03-11T05:27:02.985Z,97509.25
2023-03-11T05:27:43.133Z,97493.00
2023-03-11T05:28:23.964Z,97491.16
2023-03-11T05:29:04.053Z,97496.63
2023-03-11T05:29:43.964Z,97518.00
2023-03-11T05:30:24.149Z,97483.31
2023-03-11T05:31:03.991Z,97493.63
2023-03-11T05:31:44.169Z,97510.81
2023-03-11T05:32:26.129Z,97512.06
2023-03-11T05:33:06.068Z,97490.00
2023-03-11T05:33:45.954Z,97498.94
2023-03-11T05:34:27.100Z,97487.44
2023-03-11T05:35:07.963Z,97508.56
2023-03-11T05:35:48.092Z,97498.94
2023-03-11T05:36:28.996Z,97518.25
2023-03-11T05:37:09.122Z,97500.59
2023-03-11T05:37:49.958Z,97512.09
2023-03-11T05:38:43.987Z,97498.59
2023-03-11T05:39:38.014Z,97507.72
2023-03-11T05:40:31.959Z,97495.97
2023-03-11T05:41:25.966Z,97486.88
2023-03-11T05:42:06.977Z,97515.84
2023-03-11T05:42:47.052Z,97493.72
2023-03-11T05:43:26.945Z,97488.63
2023-03-11T05:44:20.963Z,97529.34
2023-03-11T05:45:14.970Z,97511.03
2023-03-11T05:46:09.011Z,97507.34
2023-03-11T05:47:03.038Z,97504.75
2023-03-11T05:47:43.979Z,97507.47
2023-03-11T05:48:24.094Z,97502.56
2023-03-11T05:49:05.941Z,97512.41
2023-03-11T05:49:46.024Z,97494.88
2023-03-11T05:50:26.933Z,97516.28
2023-03-11T05:51:07.287Z,97514.47
2023-03-11T05:51:47.930Z,97517.97
2023-03-11T05:52:28.044Z,97512.56
2023-03-11T05:53:07.970Z,97525.91
2023-03-11T05:53:54.051Z,97509.50
2023-03-11T05:54:33.946Z,97519.13
2023-03-11T05:55:16.055Z,97506.84
2023-03-11T05:56:04.930Z,97515.00
2023-03-11T05:56:45.030Z,97529.03
2023-03-11T05:57:26.058Z,97527.56
2023-03-11T05:58:06.096Z,97525.69
2023-03-11T05:58:45.992Z,97533.53
2023-03-11T05:59:26.087Z,97527.53
2023-03-11T06:00:06.942Z,97526.41
2023-03-11T06:00:47.040Z,97528.19
2023-03-11T06:01:26.945Z,97554.88
2023-03-11T06:02:08.032Z,97555.72
2023-03-11T06:02:48.967Z,97527.59
2023-03-11T06:03:30.095Z,97524.59
2023-03-11T06:04:12.095Z,97550.63
2023-03-11T06:04:52.271Z,97551.06
2023-03-11T06:05:31.939Z,97544.06
2023-03-11T06:06:14.063Z,97539.88
2023-03-11T06:06:53.949Z,97540.53
2023-03-11T06:07:34.036Z,97538.03
2023-03-11T06:08:14.911Z,97567.00
2023-03-11T06:08:55.031Z,97550.84
2023-03-11T06:09:34.942Z,97552.81
2023-03-11T06:10:16.013Z,97551.28
2023-03-11T06:10:56.930Z,97547.31
2023-03-11T06:11:37.037Z,97553.22
2023-03-11T06:12:17.978Z,97560.66
2023-03-11T06:12:58.020Z,97562.66
2023-03-11T06:13:38.928Z,97545.03
2023-03-11T06:14:22.012Z,97537.50
2023-03-11T06:15:02.953Z,97552.06
2023-03-11T06:15:44.003Z,97573.63
2023-03-11T06:16:24.973Z,97585.25
2023-03-11T06:17:06.021Z,97582.78
2023-03-11T06:17:45.960Z,97553.22
2023-03-11T06:18:26.696Z,97579.06
2023-03-11T06:19:07.929Z,97550.66
2023-03-11T06:19:48.023Z,97578.91
2023-03-11T06:20:28.949Z,97583.28
2023-03-11T06:21:10.028Z,97576.13
2023-03-11T06:21:49.913Z,97564.94
2023-03-11T06:22:30.010Z,97590.69
2023-03-11T06:23:10.942Z,97587.28
2023-03-11T06:23:52.006Z,97584.25
2023-03-11T06:24:32.925Z,97582.47
2023-03-11T06:25:14.075Z,97585.75
2023-03-11T06:26:11.952Z,97593.31
2023-03-11T06:26:52.063Z,97595.13
2023-03-11T06:27:32.905Z,97572.13
2023-03-11T06:28:13.020Z,97590.47
2023-03-11T06:28:54.888Z,97572.06
2023-03-11T06:29:34.991Z,97597.59
2023-03-11T06:30:16.923Z,97574.78
2023-03-11T06:30:58.724Z,97568.00
2023-03-11T06:31:40.025Z,97573.09
2023-03-11T06:32:20.055Z,97574.47
2023-03-11T06:33:01.903Z,97559.91
2023-03-11T06:33:42.048Z,97587.78
2023-03-11T06:34:22.928Z,97601.25
2023-03-11T06:35:03.056Z,97578.59
2023-03-11T06:35:42.920Z,97597.03
2023-03-11T06:36:26.000Z,97584.19
2023-03-11T06:37:06.933Z,97575.00
2023-03-11T06:37:46.973Z,97608.69
2023-03-11T06:38:27.947Z,97586.28
2023-03-11T06:39:08.081Z,97595.38
2023-03-11T06:39:48.910Z,97599.63
2023-03-11T06:40:29.012Z,97589.03
2023-03-11T06:41:10.897Z,97584.31
2023-03-11T06:41:51.023Z,97603.22
2023-03-11T06:42:31.954Z,97610.00
2023-03-11T06:43:12.021Z,97582.56
2023-03-11T06:43:52.892Z,97581.56
2023-03-11T06:44:33.053Z,97587.06
2023-03-11T06:45:14.901Z,97603.19
2023-03-11T06:45:55.090Z,97611.56
2023-03-11T06:46:34.910Z,97601.91
2023-03-11T06:47:14.987Z,97577.94
2023-03-11T06:47:54.988Z,97596.63
2023-03-11T06:48:34.963Z,97606.34
2023-03-11T06:49:17.902Z,97599.22
2023-03-11T06:50:02.365Z,97607.03
2023-03-11T06:50:44.422Z,97630.13
2023-03-11T06:51:26.057Z,97617.09
2023-03-11T06:52:05.883Z,97593.28
2023-03-11T06:52:46.005Z,97621.44
2023-03-11T06:53:26.918Z,97630.34
2023-03-11T06:54:07.164Z,97623.25
2023-03-11T06:54:47.881Z,97606.50
2023-03-11T06:55:27.962Z,97622.72
2023-03-11T06:56:10.897Z,97593.22
2023-03-11T06:56:50.993Z,97614.63
2023-03-11T06:57:32.892Z,97601.69
2023-03-11T06:58:12.984Z,97613.22
2023-03-11T06:58:53.967Z,97624.78
2023-03-11T06:59:33.990Z,97604.81
2023-03-11T07:00:18.869Z,97637.59
2023-03-11T07:00:59.035Z,97616.66
2023-03-11T07:01:39.876Z,97617.50
2023-03-11T07:02:52.962Z,97628.66
2023-03-11T07:03:32.929Z,97629.97
2023-03-11T07:04:12.943Z,97632.78
2023-03-11T07:04:46.981Z,97616.69
2023-03-11T07:05:34.864Z,97650.50
2023-03-11T07:06:09.810Z,97614.44
2023-03-11T07:06:56.877Z,97633.38
2023-03-11T07:07:34.982Z,97622.44
2023-03-11T07:08:23.106Z,97604.56
2023-03-11T07:08:59.971Z,97657.59
2023-03-11T07:09:40.924Z,97625.53
2023-03-11T07:10:20.983Z,97641.72
2023-03-11T07:11:29.923Z,97651.63
2023-03-11T07:12:11.096Z,97628.81
2023-03-11T07:12:52.892Z,97665.91
2023-03-11T07:13:34.999Z,97649.41
2023-03-11T07:14:16.416Z,97634.59
2023-03-11T07:15:02.927Z,97666.91
2023-03-11T07:15:39.160Z,97657.03
2023-03-11T07:16:29.939Z,97659.34
2023-03-11T07:17:03.981Z,97667.19
2023-03-11T07:17:53.868Z,97683.34
2023-03-11T07:18:28.033Z,97670.66
2023-03-11T07:19:16.841Z,97681.69
2023-03-11T07:19:51.980Z,97671.47
2023-03-11T07:20:33.877Z,97681.63
2023-03-11T07:21:16.544Z,97671.78
2023-03-11T07:21:58.860Z,97693.94
2023-03-11T07:22:38.947Z,97684.69
2023-03-11T07:23:18.828Z,97667.28
2023-03-11T07:24:04.032Z,97703.47
2023-03-11T07:24:44.882Z,97664.91
2023-03-11T07:25:24.999Z,97678.13
2023-03-11T07:26:05.958Z,97702.53
2023-03-11T07:26:47.979Z,97691.81
2023-03-11T07:27:28.908Z,97668.81
2023-03-11T07:28:08.942Z,97714.88
2023-03-11T07:28:50.886Z,97700.22
2023-03-11T07:29:32.982Z,97697.13
2023-03-11T07:30:13.891Z,97709.28
2023-03-11T07:30:55.999Z,97701.72
2023-03-11T07:31:39.916Z,97721.53
2023-03-11T07:32:20.995Z,97736.28
2023-03-11T07:33:01.862Z,97718.56
2023-03-11T07:33:41.943Z,97733.72
2023-03-11T07:34:27.865Z,97727.69
2023-03-11T07:35:07.953Z,97734.41
2023-03-11T07:35:48.877Z,97759.97
2023-03-11T07:36:31.957Z,97726.16
2023-03-11T07:37:12.871Z,97736.13
2023-03-11T07:37:52.953Z,97725.94
2023-03-11T07:38:33.015Z,97742.72
2023-03-11T07:39:12.974Z,97729.13
2023-03-11T07:39:54.914Z,97752.44
2023-03-11T07:40:34.967Z,97735.03
2023-03-11T07:41:18.407Z,97754.09
2023-03-11T07:41:58.913Z,97777.38
2023-03-11T07:42:40.850Z,97748.78
2023-03-11T07:43:21.045Z,97749.19
2023-03-11T07:44:06.166Z,97752.09
2023-03-11T07:45:04.856Z,97759.13
2023-03-11T07:45:58.878Z,97756.34
2023-03-11T07:46:52.881Z,97777.34
2023-03-11T07:47:46.853Z,97777.78
2023-03-11T07:48:40.824Z,97769.00
2023-03-11T07:49:34.887Z,97772.19
2023-03-11T07:50:30.863Z,97799.81
2023-03-11T07:51:28.861Z,97785.50
2023-03-11T07:52:23.839Z,97796.19
2023-03-11T07:53:10.865Z,97813.00
2023-03-11T07:53:44.922Z,97793.09
2023-03-11T07:54:31.815Z,97807.00
2023-03-11T07:55:05.960Z,97806.97
2023-03-11T07:55:52.849Z,97814.13
2023-03-11T07:56:28.036Z,97839.66
2023-03-11T07:57:19.857Z,97841.06
2023-03-11T07:57:54.983Z,97793.81
2023-03-11T07:58:35.847Z,97824.50
2023-03-11T07:59:15.953Z,97820.13
2023-03-11T07:59:56.825Z,97829.81
2023-03-11T08:00:36.946Z,97842.69
2023-03-11T08:01:26.827Z,97829.22
2023-03-11T08:02:06.942Z,97855.31
2023-03-11T08:02:47.865Z,97811.00
2023-03-11T08:03:27.972Z,97856.88
2023-03-11T08:04:14.219Z,97848.03
2023-03-11T08:04:54.947Z,97869.06
2023-03-11T08:05:35.804Z,97862.34
2023-03-11T08:06:27.047Z,97866.25
2023-03-11T08:07:07.807Z,97862.06
2023-03-11T08:07:47.963Z,97873.25
2023-03-11T08:08:27.792Z,97859.78
2023-03-11T08:09:20.871Z,97862.91
2023-03-11T08:10:14.831Z,97851.38
2023-03-11T08:11:08.808Z,97875.81
2023-03-11T08:12:02.817Z,97892.47
2023-03-11T08:12:56.857Z,97875.38
2023-03-11T08:13:50.820Z,97871.44
2023-03-11T08:14:37.824Z,97892.59
2023-03-11T08:15:12.903Z,97888.94
2023-03-11T08:15:59.846Z,97902.50
2023-03-11T08:16:34.076Z,97899.25
2023-03-11T08:17:20.829Z,97903.16
2023-03-11T08:17:54.968Z,97920.53
2023-03-11T08:18:41.815Z,97882.69
2023-03-11T08:19:18.944Z,97884.91
2023-03-11T08:19:59.816Z,97900.03
2023-03-11T08:20:40.930Z,97891.69
2023-03-11T08:21:24.806Z,97901.75
2023-03-11T08:22:06.925Z,97903.16